createdAt,value
2018-11-25T00:00:16.032Z,32.40
2018-11-25T00:02:44.180Z,32.20
2018-11-25T00:05:12.316Z,32.80
2018-11-25T00:07:40.457Z,30.60
2018-11-25T00:10:08.597Z,29.53
2018-11-25T00:12:36.784Z,30.57
2018-11-25T00:15:06.838Z,27.97
2018-11-25T00:17:34.996Z,30.03
2018-11-25T00:20:04.470Z,29.00
2018-11-25T00:22:32.670Z,28.70
2018-11-25T00:25:00.803Z,29.40
2018-11-25T00:27:28.933Z,30.83
2018-11-25T00:29:57.063Z,30.07
2018-11-25T00:32:25.207Z,30.03
2018-11-25T00:34:54.270Z,30.00
2018-11-25T00:37:22.375Z,30.77
2018-11-25T00:39:50.579Z,29.00
2018-11-25T00:42:18.690Z,30.00
2018-11-25T00:44:46.913Z,30.63
2018-11-25T00:47:15.421Z,29.13
2018-11-25T00:49:43.581Z,28.43
2018-11-25T00:52:11.716Z,28.73
2018-11-25T00:54:39.848Z,29.70
2018-11-25T00:57:08.009Z,30.20
2018-11-25T00:59:36.201Z,30.47
2018-11-25T01:02:04.588Z,28.70
2018-11-25T01:04:32.704Z,29.53
2018-11-25T01:07:00.858Z,31.77
2018-11-25T01:09:29.091Z,29.93
2018-11-25T01:11:57.238Z,30.53
2018-11-25T01:14:25.320Z,29.70
2018-11-25T01:16:53.432Z,28.57
2018-11-25T01:19:21.657Z,29.30
2018-11-25T01:21:49.807Z,29.20
2018-11-25T01:24:18.082Z,28.00
2018-11-25T01:26:46.210Z,27.47
2018-11-25T01:29:14.375Z,27.17
2018-11-25T01:31:42.588Z,28.77
2018-11-25T01:34:10.760Z,29.27
2018-11-25T01:36:38.864Z,29.23
2018-11-25T01:39:07.230Z,28.97
2018-11-25T01:41:35.393Z,27.70
2018-11-25T01:44:03.835Z,27.70
2018-11-25T01:46:32.037Z,29.63
2018-11-25T01:49:00.204Z,31.10
2018-11-25T01:51:28.321Z,29.40
2018-11-25T01:53:56.580Z,30.07
2018-11-25T01:56:24.685Z,31.30
2018-11-25T01:58:52.783Z,28.97
2018-11-25T02:01:20.917Z,30.20
2018-11-25T02:03:49.164Z,27.70
2018-11-25T02:06:17.267Z,29.90
2018-11-25T02:08:45.368Z,28.43
2018-11-25T02:11:13.522Z,29.63
2018-11-25T02:13:41.861Z,29.17
2018-11-25T02:16:10.029Z,29.80
2018-11-25T02:18:38.156Z,28.43
2018-11-25T02:21:06.375Z,29.90
2018-11-25T02:23:41.209Z,31.43
2018-11-25T02:26:09.690Z,31.90
2018-11-25T02:28:37.807Z,32.63
2018-11-25T02:31:05.974Z,30.20
2018-11-25T02:33:34.135Z,30.53
2018-11-25T02:36:02.280Z,30.33
2018-11-25T02:38:30.379Z,29.47
2018-11-25T02:40:58.614Z,28.60
2018-11-25T02:43:26.787Z,28.83
2018-11-25T02:45:54.939Z,28.10
2018-11-25T02:48:23.121Z,26.63
2018-11-25T02:50:51.284Z,28.13
2018-11-25T02:53:19.402Z,27.23
2018-11-25T02:55:47.620Z,26.67
2018-11-25T02:58:15.722Z,26.47
2018-11-25T03:00:43.863Z,26.57
2018-11-25T03:03:12.019Z,27.27
2018-11-25T03:05:40.308Z,27.47
2018-11-25T03:08:08.470Z,30.43
2018-11-25T03:10:36.602Z,28.53
2018-11-25T03:13:04.788Z,30.33
2018-11-25T03:15:32.966Z,30.73
2018-11-25T03:18:01.055Z,30.27
2018-11-25T03:20:29.210Z,30.07
2018-11-25T03:22:57.305Z,29.83
2018-11-25T03:25:25.518Z,27.37
2018-11-25T03:27:53.692Z,26.63
2018-11-25T03:30:22.260Z,25.03
2018-11-25T03:32:51.446Z,24.27
2018-11-25T03:35:19.649Z,24.60
2018-11-25T03:37:47.817Z,24.17
2018-11-25T03:40:16.863Z,24.80
2018-11-25T03:42:45.182Z,25.07
2018-11-25T03:45:18.250Z,23.30
2018-11-25T03:47:46.355Z,23.93
2018-11-25T03:50:15.043Z,24.73
2018-11-25T03:52:43.218Z,24.20
2018-11-25T03:55:12.405Z,24.63
2018-11-25T03:57:40.929Z,24.77
2018-11-25T04:00:11.518Z,24.77
2018-11-25T04:02:39.644Z,24.70
2018-11-25T04:05:09.391Z,25.27
2018-11-25T04:07:37.523Z,26.27
2018-11-25T04:10:10.705Z,27.23
2018-11-25T04:12:38.919Z,27.17
2018-11-25T04:15:15.021Z,27.90
2018-11-25T04:17:43.225Z,27.97
2018-11-25T04:20:13.097Z,26.33
2018-11-25T04:22:41.236Z,26.80
2018-11-25T04:25:10.212Z,27.60
2018-11-25T04:27:38.319Z,28.70
2018-11-25T04:30:13.500Z,28.90
2018-11-25T04:32:42.117Z,26.17
2018-11-25T04:35:11.244Z,29.07
2018-11-25T04:37:39.347Z,25.67
2018-11-25T04:40:10.646Z,27.00
2018-11-25T04:42:38.855Z,27.53
2018-11-25T04:45:11.318Z,28.27
2018-11-25T04:47:39.566Z,26.30
2018-11-25T04:50:23.282Z,25.17
2018-11-25T04:52:51.462Z,24.57
2018-11-25T04:55:19.671Z,24.33
2018-11-25T04:57:47.770Z,24.43
2018-11-25T05:00:15.876Z,24.17
2018-11-25T05:02:43.990Z,24.23
2018-11-25T05:05:13.213Z,21.37
2018-11-25T05:07:41.530Z,23.70
2018-11-25T05:10:11.773Z,22.23
2018-11-25T05:12:39.945Z,22.43
2018-11-25T05:15:12.682Z,22.63
2018-11-25T05:17:41.008Z,23.77
2018-11-25T05:20:10.139Z,22.63
2018-11-25T05:22:38.247Z,22.90
2018-11-25T05:25:15.341Z,21.60
2018-11-25T05:27:43.473Z,21.43
2018-11-25T05:30:13.516Z,23.57
2018-11-25T05:32:41.921Z,23.57
2018-11-25T05:35:11.247Z,25.13
2018-11-25T05:37:39.473Z,24.73
2018-11-25T05:40:09.951Z,27.33
2018-11-25T05:42:38.079Z,26.17
2018-11-25T05:45:08.290Z,27.97
2018-11-25T05:47:36.559Z,30.17
2018-11-25T05:50:05.985Z,30.57
2018-11-25T05:52:34.329Z,30.43
2018-11-25T05:55:02.523Z,31.10
2018-11-25T05:57:30.633Z,30.00
2018-11-25T05:59:58.797Z,31.77
2018-11-25T06:02:26.907Z,30.53
2018-11-25T06:04:55.050Z,32.70
2018-11-25T06:07:23.223Z,31.53
2018-11-25T06:09:51.335Z,30.57
2018-11-25T06:12:19.490Z,29.03
2018-11-25T06:14:47.650Z,29.03
2018-11-25T06:17:15.815Z,30.43
2018-11-25T06:19:43.974Z,30.20
2018-11-25T06:22:12.058Z,29.33
2018-11-25T06:24:40.180Z,30.17
2018-11-25T06:27:08.440Z,30.37
2018-11-25T06:29:36.741Z,34.30
2018-11-25T06:32:04.988Z,33.77
2018-11-25T06:34:33.103Z,36.40
2018-11-25T06:37:01.253Z,35.33
2018-11-25T06:39:29.504Z,32.87
2018-11-25T06:41:57.746Z,36.03
2018-11-25T06:44:25.872Z,33.70
2018-11-25T06:46:54.440Z,34.27
2018-11-25T06:49:22.542Z,34.70
2018-11-25T06:51:50.777Z,37.27
2018-11-25T06:54:18.865Z,37.67
2018-11-25T06:56:47.025Z,35.57
2018-11-25T06:59:15.118Z,40.47
2018-11-25T07:01:43.330Z,38.83
2018-11-25T07:04:11.523Z,38.27
2018-11-25T07:06:39.739Z,34.70
2018-11-25T07:09:09.908Z,36.30
2018-11-25T07:11:37.346Z,36.90
2018-11-25T07:14:05.533Z,35.97
2018-11-25T07:16:33.673Z,37.70
2018-11-25T07:19:01.804Z,34.40
2018-11-25T07:21:29.954Z,37.00
2018-11-25T07:23:58.143Z,37.47
2018-11-25T07:26:26.426Z,35.03
2018-11-25T07:28:54.596Z,35.47
2018-11-25T07:31:22.728Z,37.47
2018-11-25T07:33:51.281Z,38.37
2018-11-25T07:36:19.472Z,40.10
2018-11-25T07:38:47.728Z,38.00
2018-11-25T07:41:15.855Z,36.60
2018-11-25T07:43:43.979Z,37.13
2018-11-25T07:46:12.092Z,37.23
2018-11-25T07:48:40.320Z,36.70
2018-11-25T07:51:08.475Z,37.20
2018-11-25T07:53:36.711Z,37.90
2018-11-25T07:56:04.910Z,35.53
2018-11-25T07:58:33.115Z,37.23
2018-11-25T08:01:01.240Z,38.53
2018-11-25T08:03:29.375Z,36.07
2018-11-25T08:05:57.488Z,36.70
2018-11-25T08:08:25.627Z,38.07
2018-11-25T08:10:53.755Z,37.43
2018-11-25T08:13:21.911Z,37.57
2018-11-25T08:15:50.081Z,36.23
2018-11-25T08:18:18.214Z,38.23
2018-11-25T08:20:46.504Z,39.90
2018-11-25T08:23:15.676Z,39.93
2018-11-25T08:25:43.058Z,39.87
2018-11-25T08:28:11.278Z,38.73
2018-11-25T08:30:39.426Z,41.13
2018-11-25T08:33:07.558Z,39.83
2018-11-25T08:35:35.857Z,40.23
2018-11-25T08:38:04.254Z,37.67
2018-11-25T08:40:33.136Z,39.07
2018-11-25T08:43:01.305Z,38.33
2018-11-25T08:45:29.778Z,38.40
2018-11-25T08:47:57.965Z,35.17
2018-11-25T08:50:26.314Z,34.63
2018-11-25T08:52:54.584Z,36.70
2018-11-25T08:55:24.123Z,34.17
2018-11-25T08:57:52.910Z,37.13
2018-11-25T09:00:22.472Z,36.10
2018-11-25T09:02:51.760Z,37.13
2018-11-25T09:05:19.966Z,35.77
2018-11-25T09:07:48.185Z,39.10
2018-11-25T09:10:17.582Z,36.27
2018-11-25T09:12:55.314Z,34.80
2018-11-25T09:15:19.357Z,35.17
2018-11-25T09:17:47.530Z,35.87
2018-11-25T09:20:16.896Z,34.30
2018-11-25T09:22:45.069Z,34.10
2018-11-25T09:25:14.632Z,36.07
2018-11-25T09:27:42.865Z,33.83
2018-11-25T09:30:18.366Z,36.53
2018-11-25T09:32:46.610Z,37.30
2018-11-25T09:35:14.937Z,34.30
2018-11-25T09:37:43.103Z,35.27
2018-11-25T09:40:13.316Z,37.07
2018-11-25T09:42:41.618Z,34.80
2018-11-25T09:45:14.886Z,33.27
2018-11-25T09:47:43.367Z,34.83
2018-11-25T09:50:12.801Z,35.57
2018-11-25T09:52:41.002Z,35.03
2018-11-25T09:55:11.246Z,36.43
2018-11-25T09:57:39.875Z,35.47
2018-11-25T10:00:24.030Z,36.50
2018-11-25T10:02:52.179Z,34.83
2018-11-25T10:05:20.439Z,36.80
2018-11-25T10:07:48.643Z,36.97
2018-11-25T10:10:18.930Z,39.30
2018-11-25T10:12:47.033Z,39.13
2018-11-25T10:15:16.461Z,39.43
2018-11-25T10:17:44.542Z,38.40
2018-11-25T10:20:14.905Z,38.97
2018-11-25T10:22:43.105Z,39.70
2018-11-25T10:25:13.263Z,42.57
2018-11-25T10:27:41.573Z,42.60
2018-11-25T10:30:13.801Z,41.90
2018-11-25T10:32:42.501Z,42.47
2018-11-25T10:35:10.723Z,41.07
2018-11-25T10:37:38.810Z,40.90
2018-11-25T10:40:15.434Z,38.87
2018-11-25T10:42:43.566Z,37.47
2018-11-25T10:45:13.983Z,37.13
2018-11-25T10:47:48.770Z,39.00
2018-11-25T10:50:18.083Z,38.87
2018-11-25T10:52:46.466Z,34.83
2018-11-25T10:55:15.804Z,38.47
2018-11-25T10:57:45.078Z,37.40
2018-11-25T11:00:28.446Z,35.17
2018-11-25T11:02:56.554Z,35.90
2018-11-25T11:05:24.883Z,35.07
2018-11-25T11:07:53.339Z,35.70
2018-11-25T11:10:21.596Z,37.17
2018-11-25T11:12:49.772Z,36.80
2018-11-25T11:15:17.899Z,38.73
2018-11-25T11:17:46.011Z,37.10
2018-11-25T11:20:14.134Z,39.93
2018-11-25T11:22:42.290Z,34.00
2018-11-25T11:25:10.440Z,36.67
2018-11-25T11:27:38.743Z,36.50
2018-11-25T11:30:09.559Z,38.63
2018-11-25T11:32:40.188Z,35.10
2018-11-25T11:35:08.515Z,36.03
2018-11-25T11:37:36.944Z,38.80
2018-11-25T11:40:11.343Z,41.33
2018-11-25T11:42:39.546Z,41.53
2018-11-25T11:45:09.608Z,43.63
2018-11-25T11:47:37.823Z,41.97
2018-11-25T11:50:10.560Z,42.27
2018-11-25T11:52:38.942Z,38.87
2018-11-25T11:55:08.838Z,39.73
2018-11-25T11:57:37.051Z,42.00
2018-11-25T12:00:10.999Z,41.40
2018-11-25T12:02:39.136Z,37.63
2018-11-25T12:05:07.435Z,37.97
2018-11-25T12:07:35.583Z,35.43
2018-11-25T12:10:04.679Z,37.53
2018-11-25T12:12:32.918Z,36.97
2018-11-25T12:15:01.088Z,37.60
2018-11-25T12:17:29.485Z,34.07
2018-11-25T12:19:57.622Z,35.80
2018-11-25T12:22:25.896Z,37.43
2018-11-25T12:24:54.059Z,34.63
2018-11-25T12:27:22.320Z,36.83
2018-11-25T12:29:50.526Z,39.63
2018-11-25T12:32:18.662Z,42.87
2018-11-25T12:34:46.807Z,36.17
2018-11-25T12:37:14.944Z,40.00
2018-11-25T12:39:43.152Z,38.57
2018-11-25T12:42:11.280Z,38.83
2018-11-25T12:44:40.534Z,39.60
2018-11-25T12:47:08.694Z,42.37
2018-11-25T12:49:36.847Z,41.23
2018-11-25T12:52:05.134Z,43.53
2018-11-25T12:54:33.236Z,43.83
2018-11-25T12:57:01.451Z,45.40
2018-11-25T12:59:29.631Z,45.17
2018-11-25T13:01:57.865Z,45.73
2018-11-25T13:04:27.808Z,45.00
2018-11-25T13:06:54.300Z,49.90
2018-11-25T13:09:22.438Z,47.30
2018-11-25T13:11:52.416Z,46.93
2018-11-25T13:14:18.752Z,45.03
2018-11-25T13:16:46.857Z,47.63
2018-11-25T13:19:20.726Z,43.97
2018-11-25T13:21:48.839Z,44.63
2018-11-25T13:24:17.019Z,44.50
2018-11-25T13:26:45.122Z,46.37
2018-11-25T13:29:13.365Z,45.60
2018-11-25T13:31:41.625Z,43.83
2018-11-25T13:34:09.817Z,45.60
2018-11-25T13:36:38.094Z,43.47
2018-11-25T13:39:08.558Z,43.87
2018-11-25T13:41:36.938Z,44.93
2018-11-25T13:44:06.065Z,44.47
2018-11-25T13:46:34.244Z,45.33
2018-11-25T13:49:02.565Z,45.30
2018-11-25T13:51:30.761Z,47.10
2018-11-25T13:53:59.304Z,46.40
2018-11-25T13:56:27.810Z,43.93
2018-11-25T13:58:56.034Z,45.83
2018-11-25T14:01:24.191Z,43.10
2018-11-25T14:03:52.370Z,44.50
2018-11-25T14:06:20.483Z,45.10
2018-11-25T14:08:52.636Z,46.37
2018-11-25T14:11:20.773Z,45.83
2018-11-25T14:13:48.912Z,43.37
2018-11-25T14:16:18.996Z,44.90
2018-11-25T14:18:47.152Z,43.23
2018-11-25T14:21:15.755Z,43.07
2018-11-25T14:23:43.575Z,44.97
2018-11-25T14:26:15.405Z,40.53
2018-11-25T14:28:44.248Z,42.83
2018-11-25T14:31:12.377Z,43.73
2018-11-25T14:33:40.596Z,44.50
2018-11-25T14:36:08.717Z,43.37
2018-11-25T14:38:36.878Z,43.80
2018-11-25T14:41:05.133Z,41.70
2018-11-25T14:43:33.268Z,40.30
2018-11-25T14:46:01.376Z,39.37
2018-11-25T14:48:29.492Z,43.00
2018-11-25T14:50:57.594Z,41.83
2018-11-25T14:53:25.706Z,40.73
2018-11-25T14:55:53.892Z,39.73
2018-11-25T14:58:22.175Z,39.83
2018-11-25T15:00:50.524Z,38.33
2018-11-25T15:03:18.710Z,36.10
2018-11-25T15:05:48.105Z,36.00
2018-11-25T15:08:21.127Z,32.50
2018-11-25T15:10:49.324Z,34.23
2018-11-25T15:13:17.510Z,33.47
2018-11-25T15:15:45.578Z,32.83
2018-11-25T15:18:13.688Z,28.33
2018-11-25T15:20:41.897Z,28.40
2018-11-25T15:23:12.384Z,29.07
2018-11-25T15:25:42.637Z,28.20
2018-11-25T15:28:10.841Z,27.30
2018-11-25T15:30:38.947Z,27.30
2018-11-25T15:33:07.291Z,27.97
2018-11-25T15:35:35.406Z,27.83
2018-11-25T15:38:03.687Z,29.17
2018-11-25T15:40:33.145Z,26.83
2018-11-25T15:43:01.355Z,29.50
2018-11-25T15:45:29.502Z,29.43
2018-11-25T15:48:00.524Z,28.50
2018-11-25T15:50:29.389Z,31.47
2018-11-25T15:52:57.554Z,31.33
2018-11-25T15:55:25.726Z,31.33
2018-11-25T15:57:53.928Z,28.27
2018-11-25T16:00:23.147Z,31.10
2018-11-25T16:02:51.304Z,29.97
2018-11-25T16:05:28.726Z,30.70
2018-11-25T16:07:57.014Z,27.93
2018-11-25T16:10:25.376Z,29.33
2018-11-25T16:12:53.655Z,32.00
2018-11-25T16:15:23.289Z,30.40
2018-11-25T16:17:51.372Z,32.40
2018-11-25T16:20:21.959Z,28.67
2018-11-25T16:22:51.712Z,32.03
2018-11-25T16:25:38.839Z,33.07
2018-11-25T16:28:12.218Z,31.50
2018-11-25T16:30:40.368Z,31.67
2018-11-25T16:33:08.483Z,32.97
2018-11-25T16:35:36.589Z,35.07
2018-11-25T16:38:05.589Z,33.97
2018-11-25T16:40:33.754Z,32.50
2018-11-25T16:43:01.998Z,34.17
2018-11-25T16:45:30.134Z,32.63
2018-11-25T16:47:58.658Z,31.63
2018-11-25T16:50:26.852Z,35.00
2018-11-25T16:52:55.004Z,35.10
2018-11-25T16:55:23.343Z,33.23
2018-11-25T16:57:51.495Z,32.63
2018-11-25T17:00:19.940Z,32.93
2018-11-25T17:02:48.190Z,35.20
2018-11-25T17:05:23.078Z,34.40
2018-11-25T17:07:55.138Z,34.30
2018-11-25T17:10:23.384Z,34.53
2018-11-25T17:12:51.519Z,37.17
2018-11-25T17:15:21.910Z,36.33
2018-11-25T17:17:50.154Z,34.43
2018-11-25T17:20:18.289Z,36.10
2018-11-25T17:22:46.404Z,35.47
2018-11-25T17:25:14.594Z,35.83
2018-11-25T17:27:42.997Z,35.53
2018-11-25T17:30:12.642Z,36.37
2018-11-25T17:32:41.242Z,35.13
2018-11-25T17:35:15.144Z,35.47
2018-11-25T17:37:43.366Z,35.73
2018-11-25T17:40:11.594Z,37.40
2018-11-25T17:42:39.985Z,38.50
2018-11-25T17:45:10.499Z,36.20
2018-11-25T17:47:38.704Z,35.17
2018-11-25T17:50:13.119Z,36.90
2018-11-25T17:52:41.242Z,35.33
2018-11-25T17:55:10.800Z,36.07
2018-11-25T17:57:39.094Z,34.50
2018-11-25T18:00:13.076Z,33.73
2018-11-25T18:02:41.460Z,35.53
2018-11-25T18:05:09.937Z,35.73
2018-11-25T18:07:38.069Z,36.93
2018-11-25T18:10:09.746Z,32.90
2018-11-25T18:12:37.919Z,37.03
2018-11-25T18:15:15.861Z,36.93
2018-11-25T18:17:52.848Z,37.30
2018-11-25T18:20:21.519Z,32.30
2018-11-25T18:22:49.923Z,32.90
2018-11-25T18:25:18.079Z,35.70
2018-11-25T18:27:46.231Z,34.00
2018-11-25T18:30:15.975Z,34.90
2018-11-25T18:32:44.666Z,37.50
2018-11-25T18:35:12.914Z,34.77
2018-11-25T18:37:41.354Z,35.30
2018-11-25T18:40:11.504Z,34.83
2018-11-25T18:42:40.187Z,36.40
2018-11-25T18:45:11.605Z,36.67
2018-11-25T18:47:39.850Z,37.37
2018-11-25T18:50:10.979Z,33.50
2018-11-25T18:52:39.543Z,34.27
2018-11-25T18:55:06.477Z,35.63
2018-11-25T18:57:34.571Z,34.83
2018-11-25T19:00:03.425Z,34.20
2018-11-25T19:02:40.485Z,36.83
2018-11-25T19:05:08.788Z,36.20
2018-11-25T19:07:38.798Z,36.80
2018-11-25T19:10:10.581Z,36.47
2018-11-25T19:12:44.017Z,37.27
2018-11-25T19:15:08.927Z,37.77
2018-11-25T19:17:37.779Z,36.50
2018-11-25T19:20:13.261Z,36.90
2018-11-25T19:22:43.946Z,36.93
2018-11-25T19:25:14.640Z,37.40
2018-11-25T19:27:43.822Z,34.73
2018-11-25T19:30:13.951Z,35.47
2018-11-25T19:32:43.202Z,34.27
2018-11-25T19:35:14.384Z,33.77
2018-11-25T19:37:43.375Z,34.97
2018-11-25T19:40:16.427Z,34.40
2018-11-25T19:42:44.691Z,34.27
2018-11-25T19:45:14.556Z,34.27
2018-11-25T19:47:42.939Z,35.30
2018-11-25T19:50:13.571Z,32.30
2018-11-25T19:52:41.988Z,33.43
2018-11-25T19:55:10.162Z,33.40
2018-11-25T19:57:38.560Z,31.37
2018-11-25T20:00:14.450Z,33.57
2018-11-25T20:02:42.643Z,32.70
2018-11-25T20:05:12.259Z,31.50
2018-11-25T20:07:47.112Z,31.60
2018-11-25T20:10:19.501Z,31.50
2018-11-25T20:12:49.005Z,33.33
2018-11-25T20:15:17.336Z,34.07
2018-11-25T20:17:53.751Z,32.83
2018-11-25T20:20:15.977Z,34.17
2018-11-25T20:22:44.287Z,31.27
2018-11-25T20:25:13.275Z,30.63
2018-11-25T20:27:41.471Z,32.60
2018-11-25T20:30:11.367Z,32.87
2018-11-25T20:32:39.521Z,32.63
2018-11-25T20:35:07.663Z,32.13
2018-11-25T20:37:35.936Z,32.53
2018-11-25T20:40:04.161Z,32.33
2018-11-25T20:42:32.366Z,31.40
2018-11-25T20:45:00.530Z,32.33
2018-11-25T20:47:28.705Z,31.90
2018-11-25T20:49:56.974Z,32.77
2018-11-25T20:52:25.083Z,34.47
2018-11-25T20:54:53.349Z,32.30
2018-11-25T20:57:21.447Z,32.03
2018-11-25T20:59:49.648Z,34.03
2018-11-25T21:02:20.425Z,31.63
2018-11-25T21:04:46.037Z,32.40
2018-11-25T21:07:14.126Z,33.17
2018-11-25T21:09:42.631Z,31.47
2018-11-25T21:12:10.835Z,33.03
2018-11-25T21:14:39.050Z,31.80
2018-11-25T21:17:07.236Z,33.60
2018-11-25T21:19:35.422Z,32.97
2018-11-25T21:22:03.671Z,33.23
2018-11-25T21:24:31.752Z,34.23
2018-11-25T21:26:59.901Z,34.63
2018-11-25T21:29:27.985Z,33.83
2018-11-25T21:31:56.190Z,36.20
2018-11-25T21:34:24.355Z,36.30
2018-11-25T21:36:52.695Z,35.27
2018-11-25T21:39:20.829Z,39.13
2018-11-25T21:41:49.141Z,37.90
2018-11-25T21:44:17.289Z,37.77
2018-11-25T21:46:45.422Z,38.87
2018-11-25T21:49:20.316Z,37.70
2018-11-25T21:51:48.537Z,36.30
2018-11-25T21:54:16.737Z,38.90
2018-11-25T21:56:44.949Z,41.33
2018-11-25T21:59:13.129Z,39.53
2018-11-25T22:01:41.387Z,39.33
2018-11-25T22:04:09.460Z,37.77
2018-11-25T22:06:37.751Z,37.17
2018-11-25T22:09:08.775Z,37.33
2018-11-25T22:11:37.116Z,38.93
2018-11-25T22:14:05.593Z,38.63
2018-11-25T22:16:33.805Z,40.43
2018-11-25T22:19:02.001Z,38.37
2018-11-25T22:21:30.496Z,39.33
2018-11-25T22:23:58.653Z,39.17
2018-11-25T22:26:26.982Z,43.57
2018-11-25T22:28:55.136Z,39.37
2018-11-25T22:31:23.261Z,41.93
2018-11-25T22:33:51.541Z,43.67
2018-11-25T22:36:19.728Z,42.40
2018-11-25T22:38:47.924Z,42.10
2018-11-25T22:41:16.045Z,45.00
2018-11-25T22:43:44.251Z,43.43
2018-11-25T22:46:12.381Z,41.27
2018-11-25T22:48:40.525Z,46.47
2018-11-25T22:51:08.656Z,42.20
2018-11-25T22:53:36.801Z,41.50
2018-11-25T22:56:05.240Z,43.80
2018-11-25T22:58:33.413Z,44.50
2018-11-25T23:01:01.588Z,44.10
2018-11-25T23:03:29.858Z,44.90
2018-11-25T23:06:37.351Z,45.97
2018-11-25T23:09:07.263Z,44.60
2018-11-25T23:11:35.452Z,45.17
2018-11-25T23:14:03.892Z,44.93
2018-11-25T23:16:32.108Z,42.83
2018-11-25T23:19:00.325Z,46.23
2018-11-25T23:21:28.439Z,47.43
2018-11-25T23:23:56.633Z,46.20
2018-11-25T23:26:24.788Z,48.53
2018-11-25T23:28:52.925Z,46.53
2018-11-25T23:31:21.045Z,44.93
2018-11-25T23:33:49.222Z,50.33
2018-11-25T23:36:17.377Z,46.97
2018-11-25T23:38:45.576Z,46.23
2018-11-25T23:41:13.877Z,48.27
2018-11-25T23:43:42.588Z,47.07
2018-11-25T23:46:11.036Z,48.97
2018-11-25T23:48:39.889Z,45.23
2018-11-25T23:51:08.108Z,44.10
2018-11-25T23:53:36.443Z,44.77
2018-11-25T23:56:04.871Z,45.27
2018-11-25T23:58:33.681Z,46.00
